MASCOMA R @ W CANAAN: From 09/05/2018 05:00 to 09/19/2018 18:00

Date STAGE [FT] FLOW [CFS] PRECIPITATION INCREMENT [IN] AIR TEMPERATURE [DEGF]
09/19/2018 14:00 -- -- 0.00 --
09/19/2018 13:00 1.08 38.9 0.00 66.4
09/19/2018 12:00 1.09 39.6 0.00 64.6
09/19/2018 11:00 1.09 39.6 0.00 61.4
09/19/2018 10:00 1.10 40.4 0.00 60.2
09/19/2018 09:00 1.10 40.4 0.00 58.7
09/19/2018 08:00 1.11 41.2 0.00 57.2
09/19/2018 07:00 1.11 41.2 0.00 58.0
09/19/2018 06:00 1.12 42.0 0.00 59.1
09/19/2018 05:00 1.11 41.2 0.00 59.1
09/19/2018 04:00 1.10 40.4 0.00 60.2
09/19/2018 03:00 1.09 39.6 0.00 60.9
09/19/2018 02:00 1.08 38.9 0.00 61.9
09/19/2018 01:00 1.07 38.1 0.00 63.7
09/19/2018 00:00 1.06 37.3 0.00 65.3
09/18/2018 23:00 1.04 35.9 0.00 65.8
09/18/2018 22:00 1.01 33.7 0.00 67.7
09/18/2018 21:00 0.95 29.6 0.00 69.3
09/18/2018 20:00 0.87 24.6 0.00 70.5
09/18/2018 19:00 0.81 21.1 0.00 71.3
09/18/2018 18:00 0.78 19.6 0.00 73.1
09/18/2018 17:00 0.76 18.5 0.00 76.9
09/18/2018 16:00 0.75 18.1 0.00 75.6
09/18/2018 15:00 0.74 17.6 0.00 74.4
09/18/2018 14:00 0.74 17.6 0.00 72.8
09/18/2018 13:00 0.73 17.1 0.00 69.7
09/18/2018 12:00 0.73 17.1 0.00 68.0
09/18/2018 11:00 0.72 16.6 0.00 66.2
09/18/2018 10:00 0.72 16.6 0.10 64.9
09/18/2018 09:00 0.71 16.2 0.06 64.3
09/18/2018 08:00 0.71 16.2 0.07 64.2
09/18/2018 07:00 0.70 15.7 0.12 63.7
09/18/2018 06:00 0.70 15.7 0.11 63.6
09/18/2018 05:00 0.69 15.2 0.00 63.4
09/18/2018 04:00 0.69 15.2 0.00 63.3
09/18/2018 03:00 0.69 15.2 0.00 63.5
09/18/2018 02:00 0.69 15.2 0.00 63.1
09/18/2018 01:00 0.69 15.2 0.00 63.7
09/18/2018 00:00 0.69 15.2 0.00 63.9
09/17/2018 23:00 0.69 15.2 0.00 64.4
09/17/2018 22:00 0.69 15.2 0.00 65.2
09/17/2018 21:00 0.69 15.2 0.00 66.7
09/17/2018 20:00 0.69 15.2 0.00 69.6
09/17/2018 19:00 0.69 15.2 0.00 72.3
09/17/2018 18:00 0.69 15.2 0.00 74.7
09/17/2018 17:00 0.69 15.2 0.00 78.4
09/17/2018 16:00 0.69 15.2 0.00 80.0
09/17/2018 15:00 0.69 15.2 0.00 79.2
09/17/2018 14:00 0.69 15.2 0.00 77.4
09/17/2018 13:00 0.69 15.2 0.00 75.0
09/17/2018 12:00 0.69 15.2 0.00 72.8
09/17/2018 11:00 0.69 15.2 0.00 68.1
09/17/2018 10:00 0.69 15.2 0.00 64.5
09/17/2018 09:00 0.70 15.7 0.00 62.4
09/17/2018 08:00 0.70 15.7 0.00 60.8
09/17/2018 07:00 0.71 16.2 0.00 60.3
09/17/2018 06:00 0.71 16.2 0.00 60.4
09/17/2018 05:00 0.71 16.2 0.00 60.9
09/17/2018 04:00 0.71 16.2 0.00 61.2
09/17/2018 03:00 0.72 16.6 0.00 61.5
09/17/2018 02:00 0.72 16.6 0.00 62.1
09/17/2018 01:00 0.72 16.6 0.00 63.4
09/17/2018 00:00 0.73 17.1 0.00 64.3
09/16/2018 23:00 0.73 17.1 0.00 65.6
09/16/2018 22:00 0.73 17.1 0.00 67.1
09/16/2018 21:00 0.73 17.1 0.00 68.5
09/16/2018 20:00 0.73 17.1 0.00 71.5
09/16/2018 19:00 0.73 17.1 0.00 73.6
09/16/2018 18:00 0.73 17.1 0.00 76.7
09/16/2018 17:00 0.73 17.1 0.00 81.6
09/16/2018 16:00 0.73 17.1 0.00 82.1
09/16/2018 15:00 0.74 17.6 0.00 81.6
09/16/2018 14:00 0.74 17.6 0.00 79.3
09/16/2018 13:00 0.74 17.6 0.00 75.0
09/16/2018 12:00 0.74 17.6 0.00 68.9
09/16/2018 11:00 0.74 17.6 0.00 64.2
09/16/2018 10:00 0.74 17.6 0.00 61.4
09/16/2018 09:00 0.74 17.6 0.00 59.7
09/16/2018 08:00 0.75 18.1 0.00 58.9
09/16/2018 07:00 0.75 18.1 0.00 58.9
09/16/2018 06:00 0.75 18.1 0.00 58.6
09/16/2018 05:00 0.76 18.5 0.00 58.5
09/16/2018 04:00 0.76 18.5 0.00 59.2
09/16/2018 03:00 0.76 18.5 0.00 59.0
09/16/2018 02:00 0.76 18.5 0.00 59.8
09/16/2018 01:00 0.77 19.1 0.00 60.9
09/16/2018 00:00 0.77 19.1 0.00 62.1
09/15/2018 23:00 0.77 19.1 0.00 63.4
09/15/2018 22:00 0.77 19.1 0.00 64.9
09/15/2018 21:00 0.77 19.1 0.00 66.7
09/15/2018 20:00 0.77 19.1 0.00 69.2
09/15/2018 19:00 0.77 19.1 0.00 71.0
09/15/2018 18:00 0.76 18.5 0.00 74.4
09/15/2018 17:00 0.77 19.1 0.00 78.7
09/15/2018 16:00 0.77 19.1 0.00 78.4
09/15/2018 15:00 0.77 19.1 0.00 76.9
09/15/2018 14:00 0.78 19.6 0.00 73.3
09/15/2018 13:00 0.78 19.6 0.00 66.9
09/15/2018 12:00 0.78 19.6 0.00 63.7
09/15/2018 11:00 0.78 19.6 0.00 62.1
09/15/2018 10:00 0.78 19.6 0.00 60.8
09/15/2018 09:00 0.78 19.6 0.00 59.0
09/15/2018 08:00 0.79 20.1 0.00 58.0
09/15/2018 07:00 0.79 20.1 0.00 57.6
09/15/2018 06:00 0.80 20.6 0.00 57.3
09/15/2018 05:00 0.80 20.6 0.00 56.9
09/15/2018 04:00 0.81 21.1 0.00 56.7
09/15/2018 03:00 0.81 21.1 0.00 55.9
09/15/2018 02:00 0.81 21.1 0.00 55.5
09/15/2018 01:00 0.82 21.7 0.00 56.2
09/15/2018 00:00 0.82 21.7 0.00 57.4
09/14/2018 23:00 0.82 21.7 0.00 59.0
09/14/2018 22:00 0.82 21.7 0.00 60.6
09/14/2018 21:00 0.82 21.7 0.00 62.4
09/14/2018 20:00 0.82 21.7 0.00 64.5
09/14/2018 19:00 0.82 21.7 0.00 66.9
09/14/2018 18:00 0.82 21.7 0.00 70.4
09/14/2018 17:00 0.82 21.7 0.00 75.7
09/14/2018 16:00 0.83 22.3 0.00 76.0
09/14/2018 15:00 0.83 22.3 0.00 75.9
09/14/2018 14:00 0.83 22.3 0.00 72.9
09/14/2018 13:00 0.84 22.8 0.00 67.3
09/14/2018 12:00 0.84 22.8 0.00 64.3
09/14/2018 11:00 0.85 23.4 0.00 62.5
09/14/2018 10:00 0.85 23.4 0.00 61.5
09/14/2018 09:00 0.85 23.4 0.00 60.9
09/14/2018 08:00 0.86 24.0 0.00 60.3
09/14/2018 07:00 0.86 24.0 0.00 60.1
09/14/2018 06:00 0.87 24.6 0.00 59.9
09/14/2018 05:00 0.88 25.2 0.00 59.8
09/14/2018 04:00 0.88 25.2 0.00 59.7
09/14/2018 03:00 0.88 25.2 0.00 59.6
09/14/2018 02:00 0.89 25.8 0.00 59.8
09/14/2018 01:00 0.89 25.8 0.00 60.8
09/14/2018 00:00 0.89 25.8 0.00 61.4
09/13/2018 23:00 0.89 25.8 0.00 62.5
09/13/2018 22:00 0.90 26.4 0.00 64.3
09/13/2018 21:00 0.90 26.4 0.00 66.4
09/13/2018 20:00 0.90 26.4 0.00 68.8
09/13/2018 19:00 0.91 27.0 0.00 70.1
09/13/2018 18:00 0.91 27.0 0.00 73.0
09/13/2018 17:00 0.91 27.0 0.00 76.8
09/13/2018 16:00 0.92 27.7 0.00 75.9
09/13/2018 15:00 0.92 27.7 0.00 73.7
09/13/2018 14:00 0.92 27.7 0.00 72.8
09/13/2018 13:00 0.93 28.3 0.00 70.7
09/13/2018 12:00 0.93 28.3 0.00 68.2
09/13/2018 11:00 0.94 28.9 0.00 65.3
09/13/2018 10:00 0.94 28.9 0.00 63.3
09/13/2018 09:00 0.94 28.9 0.00 61.9
09/13/2018 08:00 0.95 29.6 0.00 61.2
09/13/2018 07:00 0.96 30.3 0.00 61.1
09/13/2018 06:00 0.97 30.9 0.00 61.3
09/13/2018 05:00 0.98 31.6 0.00 61.6
09/13/2018 04:00 0.99 32.3 0.00 61.7
09/13/2018 03:00 1.00 33.0 0.00 61.6
09/13/2018 02:00 1.00 33.0 0.00 61.6
09/13/2018 01:00 1.01 33.7 0.00 61.6
09/13/2018 00:00 1.02 34.4 0.00 61.8
09/12/2018 23:00 1.02 34.4 0.00 62.5
09/12/2018 22:00 1.02 34.4 0.00 62.8
09/12/2018 21:00 1.03 35.1 0.00 63.2
09/12/2018 20:00 1.03 35.1 0.00 64.1
09/12/2018 19:00 1.04 35.9 0.00 64.7
09/12/2018 18:00 1.04 35.9 0.00 65.8
09/12/2018 17:00 1.05 36.6 0.00 65.8
09/12/2018 16:00 1.06 37.3 0.00 67.0
09/12/2018 15:00 1.06 37.3 0.00 66.4
09/12/2018 14:00 1.07 38.1 0.00 64.9
09/12/2018 13:00 1.08 38.9 0.00 64.8
09/12/2018 12:00 1.09 39.6 0.00 64.1
09/12/2018 11:00 1.10 40.4 0.00 62.8
09/12/2018 10:00 1.11 41.2 0.00 61.8
09/12/2018 09:00 1.12 42.0 0.00 61.0
09/12/2018 08:00 1.12 42.0 0.00 60.6
09/12/2018 07:00 1.13 42.8 0.00 60.7
09/12/2018 06:00 1.13 42.8 0.00 60.9
09/12/2018 05:00 1.14 43.6 0.00 61.0
09/12/2018 04:00 1.14 43.6 0.00 61.2
09/12/2018 03:00 1.14 43.6 0.00 61.4
09/12/2018 02:00 1.14 43.6 0.01 61.8
09/12/2018 01:00 1.15 44.4 0.00 62.0
09/12/2018 00:00 1.15 44.4 0.00 62.3
09/11/2018 23:00 1.14 43.6 0.00 62.6
09/11/2018 22:00 1.13 42.8 0.00 63.1
09/11/2018 21:00 1.12 42.0 0.00 63.5
09/11/2018 20:00 1.09 39.6 0.00 64.0
09/11/2018 19:00 1.06 37.3 0.00 64.8
09/11/2018 18:00 1.04 35.9 0.00 65.8
09/11/2018 17:00 1.02 34.4 0.01 65.9
09/11/2018 16:00 0.99 32.3 0.00 65.8
09/11/2018 15:00 0.93 28.3 0.00 63.1
09/11/2018 14:00 0.89 25.8 0.00 62.6
09/11/2018 13:00 0.85 23.4 0.00 62.2
09/11/2018 12:00 0.80 20.6 0.00 60.3
09/11/2018 11:00 0.76 18.5 0.02 58.9
09/11/2018 10:00 0.73 17.1 0.14 57.7
09/11/2018 09:00 0.70 15.7 0.00 56.7
09/11/2018 08:00 0.69 15.2 0.00 56.2
09/11/2018 07:00 0.68 14.8 0.01 56.0
09/11/2018 06:00 0.67 14.4 0.07 56.0
09/11/2018 05:00 0.66 13.9 0.00 55.9
09/11/2018 04:00 0.66 13.9 0.03 55.7
09/11/2018 03:00 0.66 13.9 0.02 55.5
09/11/2018 02:00 0.66 13.9 0.06 55.2
09/11/2018 01:00 0.65 13.5 0.00 55.0
09/11/2018 00:00 0.64 13.1 0.01 54.7
09/10/2018 23:00 0.64 13.1 0.03 54.4
09/10/2018 22:00 0.63 12.7 0.07 53.8
09/10/2018 21:00 0.62 12.3 0.09 54.0
09/10/2018 20:00 0.62 12.3 0.11 54.6
09/10/2018 19:00 0.61 11.9 0.04 55.0
09/10/2018 18:00 0.61 11.9 0.04 55.2
09/10/2018 17:00 0.61 11.9 0.02 55.4
09/10/2018 16:00 0.61 11.9 0.00 56.8
09/10/2018 15:00 0.61 11.9 0.00 58.0
09/10/2018 14:00 0.61 11.9 0.00 57.3
09/10/2018 13:00 0.61 11.9 0.00 56.6
09/10/2018 12:00 0.61 11.9 0.00 53.2
09/10/2018 11:00 0.61 11.9 0.00 49.3
09/10/2018 10:00 0.61 11.9 0.00 44.9
09/10/2018 09:00 0.61 11.9 0.00 41.5
09/10/2018 08:00 0.62 12.3 0.00 39.9
09/10/2018 07:00 0.62 12.3 0.00 39.8
09/10/2018 06:00 0.62 12.3 0.00 39.5
09/10/2018 05:00 0.62 12.3 0.00 40.1
09/10/2018 04:00 0.63 12.7 0.00 40.4
09/10/2018 03:00 0.63 12.7 0.00 41.4
09/10/2018 02:00 0.63 12.7 0.00 42.6
09/10/2018 01:00 0.63 12.7 0.00 44.1
09/10/2018 00:00 0.63 12.7 0.00 45.4
09/09/2018 23:00 0.63 12.7 0.00 46.8
09/09/2018 22:00 0.63 12.7 0.00 48.2
09/09/2018 21:00 0.63 12.7 0.00 49.9
09/09/2018 20:00 0.63 12.7 0.00 52.7
09/09/2018 19:00 0.63 12.7 0.00 56.8
09/09/2018 18:00 0.63 12.7 0.00 58.9
09/09/2018 17:00 0.63 12.7 0.00 59.9
09/09/2018 16:00 0.63 12.7 0.00 59.2
09/09/2018 15:00 0.63 12.7 0.00 59.0
09/09/2018 14:00 0.63 12.7 0.00 57.4
09/09/2018 13:00 0.63 12.7 0.00 55.2
09/09/2018 12:00 0.63 12.7 0.00 53.1
09/09/2018 11:00 0.63 12.7 0.00 49.0
09/09/2018 10:00 0.63 12.7 0.00 43.1
09/09/2018 09:00 0.63 12.7 0.00 39.3
09/09/2018 08:00 0.64 13.1 0.00 37.2
09/09/2018 07:00 0.64 13.1 0.00 37.5
09/09/2018 06:00 0.64 13.1 0.00 38.5
09/09/2018 05:00 0.64 13.1 0.00 39.3
09/09/2018 04:00 0.64 13.1 0.00 40.3
09/09/2018 03:00 0.64 13.1 0.00 41.6
09/09/2018 02:00 0.64 13.1 0.00 43.4
09/09/2018 01:00 0.64 13.1 0.00 44.3
09/09/2018 00:00 0.64 13.1 0.00 44.4
09/08/2018 23:00 0.64 13.1 0.00 44.6
09/08/2018 22:00 0.64 13.1 0.00 44.7
09/08/2018 21:00 0.64 13.1 0.00 44.9
09/08/2018 20:00 0.64 13.1 0.00 45.0
09/08/2018 19:00 0.64 13.2 0.00 45.1
09/08/2018 18:00 0.64 13.2 0.00 45.3
09/08/2018 17:00 0.64 13.2 0.00 45.4
09/08/2018 16:00 0.64 13.2 0.00 45.6
09/08/2018 15:00 0.64 13.2 0.00 45.7
09/08/2018 14:00 0.64 13.2 0.00 45.8
09/08/2018 13:00 0.64 13.2 0.00 46.0
09/08/2018 12:00 0.64 13.2 0.00 46.1
09/08/2018 11:00 0.64 13.2 0.00 46.3
09/08/2018 10:00 0.64 13.2 0.00 46.4
09/08/2018 09:00 0.64 13.3 0.00 46.5
09/08/2018 08:00 0.64 13.3 0.00 46.7
09/08/2018 07:00 0.64 13.3 0.00 46.8
09/08/2018 06:00 0.64 13.3 0.00 47.0
09/08/2018 05:00 0.65 13.3 0.00 47.1
09/08/2018 04:00 0.65 13.3 0.00 47.2
09/08/2018 03:00 0.65 13.3 0.00 47.4
09/08/2018 02:00 0.65 13.3 0.00 47.5
09/08/2018 01:00 0.65 13.3 0.00 47.7
09/08/2018 00:00 0.65 13.3 0.00 47.8
09/07/2018 23:00 0.65 13.4 0.00 47.9
09/07/2018 22:00 0.65 13.4 0.00 48.1
09/07/2018 21:00 0.65 13.4 0.00 48.2
09/07/2018 20:00 0.65 13.4 0.00 48.4
09/07/2018 19:00 0.65 13.4 0.00 48.5
09/07/2018 18:00 0.65 13.4 0.00 48.6
09/07/2018 17:00 0.65 13.4 0.00 48.8
09/07/2018 16:00 0.65 13.4 0.00 48.9
09/07/2018 15:00 0.65 13.4 0.00 49.1
09/07/2018 14:00 0.65 13.5 0.00 49.2
09/07/2018 13:00 0.65 13.5 0.00 49.3
09/07/2018 12:00 0.65 13.5 0.00 49.5
09/07/2018 11:00 0.65 13.5 0.00 49.6
09/07/2018 10:00 0.65 13.5 0.00 49.8
09/07/2018 09:00 0.65 13.5 0.00 49.9
09/07/2018 08:00 0.65 13.5 0.00 50.4
09/07/2018 07:00 0.66 13.9 0.00 51.5
09/07/2018 06:00 0.66 13.9 0.00 52.5
09/07/2018 05:00 0.66 13.9 0.00 53.6
09/07/2018 04:00 0.66 13.9 0.00 54.9
09/07/2018 03:00 0.66 13.9 0.00 56.8
09/07/2018 02:00 0.66 13.9 0.00 59.1
09/07/2018 01:00 0.66 13.9 0.00 60.9
09/07/2018 00:00 0.66 13.9 0.00 62.8
09/06/2018 23:00 0.66 13.9 0.00 64.8
09/06/2018 22:00 0.66 13.9 0.00 65.8
09/06/2018 21:00 0.66 13.9 0.00 67.0
09/06/2018 20:00 0.66 13.9 0.00 69.3
09/06/2018 19:00 0.66 13.9 0.00 71.1
09/06/2018 18:00 0.66 13.9 0.00 74.3
09/06/2018 17:00 0.66 13.9 0.00 73.8
09/06/2018 16:00 0.66 13.9 0.00 72.3
09/06/2018 15:00 0.67 14.4 0.01 71.9
09/06/2018 14:00 0.67 14.4 0.04 72.2
09/06/2018 13:00 0.66 13.9 0.00 78.5
09/06/2018 12:00 0.66 13.9 0.00 79.9
09/06/2018 11:00 0.66 13.9 0.00 77.2
09/06/2018 10:00 0.66 13.9 0.00 72.0
09/06/2018 09:00 0.67 14.4 0.00 67.4
09/06/2018 08:00 0.67 14.4 0.00 66.4
09/06/2018 07:00 0.68 14.8 0.00 66.4
09/06/2018 06:00 0.68 14.8 0.00 66.6
09/06/2018 05:00 0.68 14.8 0.00 67.3
09/06/2018 04:00 0.68 14.8 0.00 68.1
09/06/2018 03:00 0.69 15.2 0.00 68.7
09/06/2018 02:00 0.69 15.2 0.00 69.0
09/06/2018 01:00 0.70 15.7 0.00 69.7
09/06/2018 00:00 0.70 15.7 0.00 70.2
09/05/2018 23:00 0.70 15.7 0.00 71.0
09/05/2018 22:00 0.71 16.2 0.00 72.2
09/05/2018 21:00 0.70 15.7 0.00 74.1
09/05/2018 20:00 0.71 16.2 0.00 76.2
09/05/2018 19:00 0.71 16.2 0.00 78.9
09/05/2018 18:00 0.72 16.6 0.00 85.8
09/05/2018 17:00 0.72 16.6 0.00 86.6
09/05/2018 16:00 0.72 16.6 0.00 86.0
09/05/2018 15:00 0.72 16.6 0.00 85.2
09/05/2018 14:00 0.72 16.6 0.00 83.7
09/05/2018 13:00 -- -- -- --
09/05/2018 12:00 -- -- -- --
09/05/2018 11:00 -- -- -- --
09/05/2018 10:00 -- -- -- --
09/05/2018 09:00 -- -- -- --
09/05/2018 08:00 -- -- -- --
09/05/2018 07:00 -- -- -- --
09/05/2018 06:00 -- -- -- --
09/05/2018 05:00 -- -- -- --